Terminal Aerodrome Forecast
Issued by NWS

Home | Current Version | Previous Version | Text Only | Print | Product List | Glossary Off
Versions: 1 2 3 4 5 6 7 8 9 10 11 12 13 14 15 16 17 18 19

000
FTUS43 KICT 022333
TAFSLN
TAF
KSLN 022333Z 0300/0324 19016G24KT P6SM SCT120
     FM030100 17013KT P6SM SCT080 BKN120
     FM031500 18017G26KT P6SM SCT100
     FM031800 19023G32KT P6SM SCT200=

USA.gov is the U.S. government's official web portal to all federal, state and local government web resources and services.